sensor_id;sensor_type;location;lat;lon;timestamp;temperature;humidity
20463;DHT22;10390;53.566;9.980;2023-07-13T00:00:01;31.20;1.00
20463;DHT22;10390;53.566;9.980;2023-07-13T00:02:29;31.20;1.00
20463;DHT22;10390;53.566;9.980;2023-07-13T00:04:55;31.20;1.00
20463;DHT22;10390;53.566;9.980;2023-07-13T00:07:20;31.20;1.00
20463;DHT22;10390;53.566;9.980;2023-07-13T00:09:46;31.20;1.00
20463;DHT22;10390;53.566;9.980;2023-07-13T00:12:31;31.20;1.00
20463;DHT22;10390;53.566;9.980;2023-07-13T00:14:58;31.20;1.00
20463;DHT22;10390;53.566;9.980;2023-07-13T00:17:26;31.20;1.00
20463;DHT22;10390;53.566;9.980;2023-07-13T00:19:52;31.20;1.00
20463;DHT22;10390;53.566;9.980;2023-07-13T00:22:19;31.20;1.00
20463;DHT22;10390;53.566;9.980;2023-07-13T00:24:45;31.20;1.00
20463;DHT22;10390;53.566;9.980;2023-07-13T00:27:11;31.20;1.00
20463;DHT22;10390;53.566;9.980;2023-07-13T00:29:37;31.20;1.00
20463;DHT22;10390;53.566;9.980;2023-07-13T00:32:04;31.20;1.00
20463;DHT22;10390;53.566;9.980;2023-07-13T00:34:30;31.20;1.00
20463;DHT22;10390;53.566;9.980;2023-07-13T00:36:56;31.10;1.00
20463;DHT22;10390;53.566;9.980;2023-07-13T00:39:21;31.20;1.00
20463;DHT22;10390;53.566;9.980;2023-07-13T00:41:48;31.20;1.00
20463;DHT22;10390;53.566;9.980;2023-07-13T00:44:15;31.20;1.00
20463;DHT22;10390;53.566;9.980;2023-07-13T00:46:41;31.20;1.00
20463;DHT22;10390;53.566;9.980;2023-07-13T00:49:10;31.10;1.00
20463;DHT22;10390;53.566;9.980;2023-07-13T00:51:45;31.10;1.00
20463;DHT22;10390;53.566;9.980;2023-07-13T00:54:19;31.10;1.00
20463;DHT22;10390;53.566;9.980;2023-07-13T00:56:48;31.10;1.00
20463;DHT22;10390;53.566;9.980;2023-07-13T00:59:16;31.10;1.00
20463;DHT22;10390;53.566;9.980;2023-07-13T01:01:43;31.10;1.00
20463;DHT22;10390;53.566;9.980;2023-07-13T01:04:09;31.10;1.00
20463;DHT22;10390;53.566;9.980;2023-07-13T01:06:36;31.10;1.00
20463;DHT22;10390;53.566;9.980;2023-07-13T01:09:03;31.10;1.00
20463;DHT22;10390;53.566;9.980;2023-07-13T01:11:29;31.10;1.00
20463;DHT22;10390;53.566;9.980;2023-07-13T01:13:55;31.10;1.00
20463;DHT22;10390;53.566;9.980;2023-07-13T01:16:28;31.10;1.00
20463;DHT22;10390;53.566;9.980;2023-07-13T01:18:55;31.10;1.00
20463;DHT22;10390;53.566;9.980;2023-07-13T01:21:24;31.10;1.00
20463;DHT22;10390;53.566;9.980;2023-07-13T01:23:51;31.10;1.00
20463;DHT22;10390;53.566;9.980;2023-07-13T01:26:17;31.10;1.00
20463;DHT22;10390;53.566;9.980;2023-07-13T01:28:43;31.10;1.00
20463;DHT22;10390;53.566;9.980;2023-07-13T01:31:09;31.10;1.00
20463;DHT22;10390;53.566;9.980;2023-07-13T01:33:37;31.00;1.00
20463;DHT22;10390;53.566;9.980;2023-07-13T01:36:05;31.00;1.00
20463;DHT22;10390;53.566;9.980;2023-07-13T01:38:31;31.00;1.00
20463;DHT22;10390;53.566;9.980;2023-07-13T01:40:56;31.00;1.00
20463;DHT22;10390;53.566;9.980;2023-07-13T01:43:22;31.00;1.00
20463;DHT22;10390;53.566;9.980;2023-07-13T01:45:48;31.00;1.00
20463;DHT22;10390;53.566;9.980;2023-07-13T01:48:14;31.00;1.00
20463;DHT22;10390;53.566;9.980;2023-07-13T01:50:40;31.00;1.00
20463;DHT22;10390;53.566;9.980;2023-07-13T01:53:06;31.00;1.00
20463;DHT22;10390;53.566;9.980;2023-07-13T01:55:32;31.00;1.00
20463;DHT22;10390;53.566;9.980;2023-07-13T01:57:57;31.00;1.00
20463;DHT22;10390;53.566;9.980;2023-07-13T02:00:23;31.00;1.00
20463;DHT22;10390;53.566;9.980;2023-07-13T02:02:50;31.00;1.00
20463;DHT22;10390;53.566;9.980;2023-07-13T02:05:16;31.00;1.00
20463;DHT22;10390;53.566;9.980;2023-07-13T02:07:42;30.90;1.00
20463;DHT22;10390;53.566;9.980;2023-07-13T02:10:09;30.90;1.00
20463;DHT22;10390;53.566;9.980;2023-07-13T02:12:35;30.90;1.00
20463;DHT22;10390;53.566;9.980;2023-07-13T02:15:01;30.90;1.00
20463;DHT22;10390;53.566;9.980;2023-07-13T02:17:27;30.90;1.00
20463;DHT22;10390;53.566;9.980;2023-07-13T02:19:52;30.90;1.00
20463;DHT22;10390;53.566;9.980;2023-07-13T02:22:18;30.90;1.00
20463;DHT22;10390;53.566;9.980;2023-07-13T02:24:44;30.90;1.00
20463;DHT22;10390;53.566;9.980;2023-07-13T02:27:09;30.90;1.00
20463;DHT22;10390;53.566;9.980;2023-07-13T02:29:35;30.90;1.00
20463;DHT22;10390;53.566;9.980;2023-07-13T02:32:01;30.90;1.00
20463;DHT22;10390;53.566;9.980;2023-07-13T02:34:26;30.90;1.00
20463;DHT22;10390;53.566;9.980;2023-07-13T02:36:52;30.90;1.00
20463;DHT22;10390;53.566;9.980;2023-07-13T02:39:18;30.90;1.00
20463;DHT22;10390;53.566;9.980;2023-07-13T02:41:43;30.90;1.00
20463;DHT22;10390;53.566;9.980;2023-07-13T02:44:09;30.90;1.00
20463;DHT22;10390;53.566;9.980;2023-07-13T02:46:36;30.90;1.00
20463;DHT22;10390;53.566;9.980;2023-07-13T02:49:02;30.90;1.00
20463;DHT22;10390;53.566;9.980;2023-07-13T02:51:28;30.90;1.00
20463;DHT22;10390;53.566;9.980;2023-07-13T02:53:54;30.80;1.00
20463;DHT22;10390;53.566;9.980;2023-07-13T02:56:23;30.90;1.00
20463;DHT22;10390;53.566;9.980;2023-07-13T02:58:49;30.80;1.00
20463;DHT22;10390;53.566;9.980;2023-07-13T03:01:14;30.80;1.00
20463;DHT22;10390;53.566;9.980;2023-07-13T03:03:45;30.80;1.00
20463;DHT22;10390;53.566;9.980;2023-07-13T03:06:12;30.80;1.00
20463;DHT22;10390;53.566;9.980;2023-07-13T03:08:38;30.80;1.00
20463;DHT22;10390;53.566;9.980;2023-07-13T03:11:13;30.80;1.00
20463;DHT22;10390;53.566;9.980;2023-07-13T03:13:41;30.80;1.00
20463;DHT22;10390;53.566;9.980;2023-07-13T03:16:08;30.80;1.00
20463;DHT22;10390;53.566;9.980;2023-07-13T03:18:35;30.80;1.00
20463;DHT22;10390;53.566;9.980;2023-07-13T03:21:01;30.80;1.00
20463;DHT22;10390;53.566;9.980;2023-07-13T03:23:27;30.80;1.00
20463;DHT22;10390;53.566;9.980;2023-07-13T03:26:11;30.80;1.00
20463;DHT22;10390;53.566;9.980;2023-07-13T03:28:38;30.80;1.00
20463;DHT22;10390;53.566;9.980;2023-07-13T03:31:07;30.80;1.00
20463;DHT22;10390;53.566;9.980;2023-07-13T03:33:33;30.80;1.00
20463;DHT22;10390;53.566;9.980;2023-07-13T03:35:59;30.80;1.00
20463;DHT22;10390;53.566;9.980;2023-07-13T03:38:25;30.80;1.00
20463;DHT22;10390;53.566;9.980;2023-07-13T03:40:52;30.80;1.00
20463;DHT22;10390;53.566;9.980;2023-07-13T03:43:17;30.80;1.00
20463;DHT22;10390;53.566;9.980;2023-07-13T03:45:43;30.70;1.00
20463;DHT22;10390;53.566;9.980;2023-07-13T03:48:09;30.80;1.00
20463;DHT22;10390;53.566;9.980;2023-07-13T03:50:35;30.70;1.00
20463;DHT22;10390;53.566;9.980;2023-07-13T03:53:00;30.70;1.00
20463;DHT22;10390;53.566;9.980;2023-07-13T03:55:26;30.80;1.00
20463;DHT22;10390;53.566;9.980;2023-07-13T03:57:57;30.80;1.00
20463;DHT22;10390;53.566;9.980;2023-07-13T04:00:23;30.80;1.00
20463;DHT22;10390;53.566;9.980;2023-07-13T04:02:49;30.80;1.00
20463;DHT22;10390;53.566;9.980;2023-07-13T04:05:15;30.70;1.00
20463;DHT22;10390;53.566;9.980;2023-07-13T04:07:41;30.70;1.00
20463;DHT22;10390;53.566;9.980;2023-07-13T04:10:07;30.70;1.00
20463;DHT22;10390;53.566;9.980;2023-07-13T04:12:33;30.70;1.00
20463;DHT22;10390;53.566;9.980;2023-07-13T04:14:58;30.70;1.00
20463;DHT22;10390;53.566;9.980;2023-07-13T04:17:24;30.70;1.00
20463;DHT22;10390;53.566;9.980;2023-07-13T04:19:49;30.70;1.00
20463;DHT22;10390;53.566;9.980;2023-07-13T04:22:15;30.70;1.00
20463;DHT22;10390;53.566;9.980;2023-07-13T04:24:40;30.70;1.00
20463;DHT22;10390;53.566;9.980;2023-07-13T04:27:06;30.70;1.00
20463;DHT22;10390;53.566;9.980;2023-07-13T04:29:32;30.70;1.00
20463;DHT22;10390;53.566;9.980;2023-07-13T04:31:58;30.70;1.00
20463;DHT22;10390;53.566;9.980;2023-07-13T04:34:23;30.70;1.00
20463;DHT22;10390;53.566;9.980;2023-07-13T04:36:50;30.70;1.00
20463;DHT22;10390;53.566;9.980;2023-07-13T04:39:16;30.70;1.00
20463;DHT22;10390;53.566;9.980;2023-07-13T04:41:41;30.70;1.00
20463;DHT22;10390;53.566;9.980;2023-07-13T04:44:07;30.70;1.00
20463;DHT22;10390;53.566;9.980;2023-07-13T04:46:32;30.70;1.00
20463;DHT22;10390;53.566;9.980;2023-07-13T04:48:58;30.70;1.00
20463;DHT22;10390;53.566;9.980;2023-07-13T04:51:24;30.70;1.00
20463;DHT22;10390;53.566;9.980;2023-07-13T04:53:50;30.70;1.00
20463;DHT22;10390;53.566;9.980;2023-07-13T04:56:15;30.70;1.00
20463;DHT22;10390;53.566;9.980;2023-07-13T04:58:41;30.80;1.00
20463;DHT22;10390;53.566;9.980;2023-07-13T05:01:07;30.70;1.00
20463;DHT22;10390;53.566;9.980;2023-07-13T05:03:34;30.80;1.00
20463;DHT22;10390;53.566;9.980;2023-07-13T05:06:03;30.80;1.00
20463;DHT22;10390;53.566;9.980;2023-07-13T05:08:29;30.80;1.00
20463;DHT22;10390;53.566;9.980;2023-07-13T05:10:55;30.80;1.00
20463;DHT22;10390;53.566;9.980;2023-07-13T05:13:21;30.80;1.00
20463;DHT22;10390;53.566;9.980;2023-07-13T05:16:16;30.80;1.00
20463;DHT22;10390;53.566;9.980;2023-07-13T05:18:42;30.80;1.00
20463;DHT22;10390;53.566;9.980;2023-07-13T05:21:09;30.90;1.00
20463;DHT22;10390;53.566;9.980;2023-07-13T05:23:36;30.90;1.00
20463;DHT22;10390;53.566;9.980;2023-07-13T05:26:02;30.90;1.00
20463;DHT22;10390;53.566;9.980;2023-07-13T05:28:29;30.90;1.00
20463;DHT22;10390;53.566;9.980;2023-07-13T05:30:55;30.90;1.00
20463;DHT22;10390;53.566;9.980;2023-07-13T05:33:21;31.00;1.00
20463;DHT22;10390;53.566;9.980;2023-07-13T05:35:47;31.00;1.00
20463;DHT22;10390;53.566;9.980;2023-07-13T05:38:13;31.10;1.00
20463;DHT22;10390;53.566;9.980;2023-07-13T05:40:39;31.00;1.00
20463;DHT22;10390;53.566;9.980;2023-07-13T05:43:04;31.10;1.00
20463;DHT22;10390;53.566;9.980;2023-07-13T05:45:30;31.10;1.00
20463;DHT22;10390;53.566;9.980;2023-07-13T05:47:55;31.10;1.00
20463;DHT22;10390;53.566;9.980;2023-07-13T05:50:21;31.10;1.00
20463;DHT22;10390;53.566;9.980;2023-07-13T05:52:47;31.10;1.00
20463;DHT22;10390;53.566;9.980;2023-07-13T05:55:12;31.10;1.00
20463;DHT22;10390;53.566;9.980;2023-07-13T05:57:38;31.10;1.00
20463;DHT22;10390;53.566;9.980;2023-07-13T06:00:05;31.10;1.00
20463;DHT22;10390;53.566;9.980;2023-07-13T06:02:30;31.10;1.00
20463;DHT22;10390;53.566;9.980;2023-07-13T06:04:56;31.10;1.00
20463;DHT22;10390;53.566;9.980;2023-07-13T06:07:22;31.10;1.00
20463;DHT22;10390;53.566;9.980;2023-07-13T06:09:47;31.10;1.00
20463;DHT22;10390;53.566;9.980;2023-07-13T06:12:13;31.10;1.00
20463;DHT22;10390;53.566;9.980;2023-07-13T06:14:40;31.10;1.00
20463;DHT22;10390;53.566;9.980;2023-07-13T06:17:05;31.10;1.00
20463;DHT22;10390;53.566;9.980;2023-07-13T06:19:31;31.10;1.00
20463;DHT22;10390;53.566;9.980;2023-07-13T06:21:57;31.10;1.00
20463;DHT22;10390;53.566;9.980;2023-07-13T06:24:24;31.10;1.00
20463;DHT22;10390;53.566;9.980;2023-07-13T06:26:50;31.10;1.00
20463;DHT22;10390;53.566;9.980;2023-07-13T06:29:15;31.10;1.00
20463;DHT22;10390;53.566;9.980;2023-07-13T06:31:42;31.10;1.00
20463;DHT22;10390;53.566;9.980;2023-07-13T06:34:07;31.10;1.00
20463;DHT22;10390;53.566;9.980;2023-07-13T06:36:33;31.10;1.00
20463;DHT22;10390;53.566;9.980;2023-07-13T06:38:59;31.10;1.00
20463;DHT22;10390;53.566;9.980;2023-07-13T06:41:24;31.10;1.00
20463;DHT22;10390;53.566;9.980;2023-07-13T06:43:53;31.10;1.00
20463;DHT22;10390;53.566;9.980;2023-07-13T06:46:21;31.10;1.00
20463;DHT22;10390;53.566;9.980;2023-07-13T06:48:46;31.10;1.00
20463;DHT22;10390;53.566;9.980;2023-07-13T06:51:12;31.10;1.00
20463;DHT22;10390;53.566;9.980;2023-07-13T06:53:38;31.10;1.00
20463;DHT22;10390;53.566;9.980;2023-07-13T06:56:03;31.10;1.00
20463;DHT22;10390;53.566;9.980;2023-07-13T06:58:29;31.10;1.00
20463;DHT22;10390;53.566;9.980;2023-07-13T07:00:55;31.10;1.00
20463;DHT22;10390;53.566;9.980;2023-07-13T07:03:20;31.10;1.00
20463;DHT22;10390;53.566;9.980;2023-07-13T07:05:46;31.10;1.00
20463;DHT22;10390;53.566;9.980;2023-07-13T07:08:12;31.10;1.00
20463;DHT22;10390;53.566;9.980;2023-07-13T07:10:37;31.10;1.00
20463;DHT22;10390;53.566;9.980;2023-07-13T07:13:03;31.10;1.00
20463;DHT22;10390;53.566;9.980;2023-07-13T07:15:30;31.10;1.00
20463;DHT22;10390;53.566;9.980;2023-07-13T07:17:55;31.10;1.00
20463;DHT22;10390;53.566;9.980;2023-07-13T07:20:21;31.10;1.00
20463;DHT22;10390;53.566;9.980;2023-07-13T07:22:47;31.10;1.00
20463;DHT22;10390;53.566;9.980;2023-07-13T07:25:13;31.20;1.00
20463;DHT22;10390;53.566;9.980;2023-07-13T07:27:39;31.20;1.00
20463;DHT22;10390;53.566;9.980;2023-07-13T07:30:05;31.20;1.00
20463;DHT22;10390;53.566;9.980;2023-07-13T07:32:31;31.20;1.00
20463;DHT22;10390;53.566;9.980;2023-07-13T07:34:58;31.30;1.00
20463;DHT22;10390;53.566;9.980;2023-07-13T07:37:24;31.30;1.00
20463;DHT22;10390;53.566;9.980;2023-07-13T07:39:49;31.30;1.00
20463;DHT22;10390;53.566;9.980;2023-07-13T07:42:15;31.40;1.00
20463;DHT22;10390;53.566;9.980;2023-07-13T07:44:41;31.40;1.00
20463;DHT22;10390;53.566;9.980;2023-07-13T07:47:07;31.50;1.00
20463;DHT22;10390;53.566;9.980;2023-07-13T07:49:35;31.40;1.00
20463;DHT22;10390;53.566;9.980;2023-07-13T07:52:01;31.50;1.00
20463;DHT22;10390;53.566;9.980;2023-07-13T07:54:26;31.50;1.00
20463;DHT22;10390;53.566;9.980;2023-07-13T07:56:52;31.60;1.00
20463;DHT22;10390;53.566;9.980;2023-07-13T07:59:19;31.60;1.00
20463;DHT22;10390;53.566;9.980;2023-07-13T08:01:44;31.60;1.00
20463;DHT22;10390;53.566;9.980;2023-07-13T08:04:12;31.70;1.00
20463;DHT22;10390;53.566;9.980;2023-07-13T08:06:37;31.70;1.00
20463;DHT22;10390;53.566;9.980;2023-07-13T08:09:03;31.70;1.00
20463;DHT22;10390;53.566;9.980;2023-07-13T08:11:29;31.80;1.00
20463;DHT22;10390;53.566;9.980;2023-07-13T08:13:55;31.80;1.00
20463;DHT22;10390;53.566;9.980;2023-07-13T08:16:21;31.80;1.00
20463;DHT22;10390;53.566;9.980;2023-07-13T08:18:47;31.80;1.00
20463;DHT22;10390;53.566;9.980;2023-07-13T08:21:12;31.80;1.00
20463;DHT22;10390;53.566;9.980;2023-07-13T08:23:38;31.90;1.00
20463;DHT22;10390;53.566;9.980;2023-07-13T08:26:04;31.90;1.00
20463;DHT22;10390;53.566;9.980;2023-07-13T08:28:30;31.90;1.00
20463;DHT22;10390;53.566;9.980;2023-07-13T08:31:02;31.90;1.00
20463;DHT22;10390;53.566;9.980;2023-07-13T08:33:28;31.90;1.00
20463;DHT22;10390;53.566;9.980;2023-07-13T08:35:54;31.90;1.00
20463;DHT22;10390;53.566;9.980;2023-07-13T08:38:19;32.00;1.00
20463;DHT22;10390;53.566;9.980;2023-07-13T08:40:51;32.00;1.00
20463;DHT22;10390;53.566;9.980;2023-07-13T08:43:23;32.00;1.00
20463;DHT22;10390;53.566;9.980;2023-07-13T08:45:54;32.00;1.00
20463;DHT22;10390;53.566;9.980;2023-07-13T08:48:27;32.00;1.00
20463;DHT22;10390;53.566;9.980;2023-07-13T08:53:41;32.00;1.00
20463;DHT22;10390;53.566;9.980;2023-07-13T08:56:35;32.00;1.00
20463;DHT22;10390;53.566;9.980;2023-07-13T08:59:14;32.00;1.00
20463;DHT22;10390;53.566;9.980;2023-07-13T09:04:28;32.00;1.00
20463;DHT22;10390;53.566;9.980;2023-07-13T09:12:17;32.10;1.00
20463;DHT22;10390;53.566;9.980;2023-07-13T09:14:50;32.00;1.00
20463;DHT22;10390;53.566;9.980;2023-07-13T09:17:40;32.10;1.00
20463;DHT22;10390;53.566;9.980;2023-07-13T09:20:31;32.10;1.00
20463;DHT22;10390;53.566;9.980;2023-07-13T09:22:59;32.10;1.00
20463;DHT22;10390;53.566;9.980;2023-07-13T09:25:31;32.20;1.00
20463;DHT22;10390;53.566;9.980;2023-07-13T09:28:19;32.20;1.00
20463;DHT22;10390;53.566;9.980;2023-07-13T09:31:19;32.10;1.00
20463;DHT22;10390;53.566;9.980;2023-07-13T09:33:47;32.10;1.00
20463;DHT22;10390;53.566;9.980;2023-07-13T09:38:44;32.20;1.00
20463;DHT22;10390;53.566;9.980;2023-07-13T09:41:26;32.20;1.00
20463;DHT22;10390;53.566;9.980;2023-07-13T09:44:01;32.20;1.00
20463;DHT22;10390;53.566;9.980;2023-07-13T09:46:27;32.20;1.00
20463;DHT22;10390;53.566;9.980;2023-07-13T09:48:52;32.20;1.00
20463;DHT22;10390;53.566;9.980;2023-07-13T09:51:21;32.20;1.00
20463;DHT22;10390;53.566;9.980;2023-07-13T09:53:46;32.20;1.00
20463;DHT22;10390;53.566;9.980;2023-07-13T09:56:23;32.20;1.00
20463;DHT22;10390;53.566;9.980;2023-07-13T09:58:49;32.20;1.00
20463;DHT22;10390;53.566;9.980;2023-07-13T10:01:15;32.20;1.00
20463;DHT22;10390;53.566;9.980;2023-07-13T10:03:54;32.20;1.00
20463;DHT22;10390;53.566;9.980;2023-07-13T10:06:21;32.20;1.00
20463;DHT22;10390;53.566;9.980;2023-07-13T10:08:52;32.20;1.00
20463;DHT22;10390;53.566;9.980;2023-07-13T10:11:24;32.20;1.00
20463;DHT22;10390;53.566;9.980;2023-07-13T10:14:28;32.20;1.00
20463;DHT22;10390;53.566;9.980;2023-07-13T10:16:55;32.20;1.00
20463;DHT22;10390;53.566;9.980;2023-07-13T10:19:25;32.20;1.00
20463;DHT22;10390;53.566;9.980;2023-07-13T10:21:57;32.20;1.00
20463;DHT22;10390;53.566;9.980;2023-07-13T10:24:32;32.10;1.00
20463;DHT22;10390;53.566;9.980;2023-07-13T10:27:29;32.20;1.00
20463;DHT22;10390;53.566;9.980;2023-07-13T10:32:45;32.10;1.00
20463;DHT22;10390;53.566;9.980;2023-07-13T10:35:14;32.20;1.00
20463;DHT22;10390;53.566;9.980;2023-07-13T10:40:28;32.20;1.00
20463;DHT22;10390;53.566;9.980;2023-07-13T10:42:57;32.20;1.00
20463;DHT22;10390;53.566;9.980;2023-07-13T10:45:25;32.20;1.00
20463;DHT22;10390;53.566;9.980;2023-07-13T10:47:54;32.20;1.00
20463;DHT22;10390;53.566;9.980;2023-07-13T10:50:26;32.20;1.00
20463;DHT22;10390;53.566;9.980;2023-07-13T10:52:55;32.20;1.00
20463;DHT22;10390;53.566;9.980;2023-07-13T11:01:13;32.20;1.00
20463;DHT22;10390;53.566;9.980;2023-07-13T11:14:00;32.20;1.00
20463;DHT22;10390;53.566;9.980;2023-07-13T11:16:42;32.20;1.00
20463;DHT22;10390;53.566;9.980;2023-07-13T11:19:25;32.20;1.00
20463;DHT22;10390;53.566;9.980;2023-07-13T11:25:00;32.20;1.00
20463;DHT22;10390;53.566;9.980;2023-07-13T11:27:36;32.10;1.00
20463;DHT22;10390;53.566;9.980;2023-07-13T11:30:25;32.20;1.00
20463;DHT22;10390;53.566;9.980;2023-07-13T11:33:19;32.10;1.00
20463;DHT22;10390;53.566;9.980;2023-07-13T11:36:04;32.10;1.00
20463;DHT22;10390;53.566;9.980;2023-07-13T11:38:37;32.10;1.00
20463;DHT22;10390;53.566;9.980;2023-07-13T11:41:16;32.10;1.00
20463;DHT22;10390;53.566;9.980;2023-07-13T11:43:44;32.20;1.00
20463;DHT22;10390;53.566;9.980;2023-07-13T11:46:36;32.20;1.00
20463;DHT22;10390;53.566;9.980;2023-07-13T11:49:05;32.10;1.00
20463;DHT22;10390;53.566;9.980;2023-07-13T11:51:34;32.20;1.00
20463;DHT22;10390;53.566;9.980;2023-07-13T11:56:49;32.10;1.00
20463;DHT22;10390;53.566;9.980;2023-07-13T11:59:15;32.10;1.00
20463;DHT22;10390;53.566;9.980;2023-07-13T12:01:53;32.10;1.00
20463;DHT22;10390;53.566;9.980;2023-07-13T12:04:31;32.10;1.00
20463;DHT22;10390;53.566;9.980;2023-07-13T12:07:15;32.10;1.00
20463;DHT22;10390;53.566;9.980;2023-07-13T12:09:41;32.10;1.00
20463;DHT22;10390;53.566;9.980;2023-07-13T12:12:16;32.10;1.00
20463;DHT22;10390;53.566;9.980;2023-07-13T12:14:43;32.10;1.00
20463;DHT22;10390;53.566;9.980;2023-07-13T12:17:24;32.10;1.00
20463;DHT22;10390;53.566;9.980;2023-07-13T12:19:52;32.00;1.00
20463;DHT22;10390;53.566;9.980;2023-07-13T12:22:19;32.00;1.00
20463;DHT22;10390;53.566;9.980;2023-07-13T12:24:46;32.00;1.00
20463;DHT22;10390;53.566;9.980;2023-07-13T12:27:21;32.00;1.00
20463;DHT22;10390;53.566;9.980;2023-07-13T12:30:03;32.00;1.00
20463;DHT22;10390;53.566;9.980;2023-07-13T12:32:31;32.00;1.00
20463;DHT22;10390;53.566;9.980;2023-07-13T12:35:14;32.00;1.00
20463;DHT22;10390;53.566;9.980;2023-07-13T12:37:42;32.00;1.00
20463;DHT22;10390;53.566;9.980;2023-07-13T12:40:16;32.00;1.00
20463;DHT22;10390;53.566;9.980;2023-07-13T12:42:46;32.00;1.00
20463;DHT22;10390;53.566;9.980;2023-07-13T12:45:27;32.00;1.00
20463;DHT22;10390;53.566;9.980;2023-07-13T12:47:59;32.00;1.00
20463;DHT22;10390;53.566;9.980;2023-07-13T12:50:30;32.00;1.00
20463;DHT22;10390;53.566;9.980;2023-07-13T12:53:01;31.90;1.00
20463;DHT22;10390;53.566;9.980;2023-07-13T12:55:44;32.00;1.00
20463;DHT22;10390;53.566;9.980;2023-07-13T12:58:26;32.00;1.00
20463;DHT22;10390;53.566;9.980;2023-07-13T13:00:54;31.90;1.00
20463;DHT22;10390;53.566;9.980;2023-07-13T13:03:33;31.90;1.00
20463;DHT22;10390;53.566;9.980;2023-07-13T13:06:01;32.00;1.00
20463;DHT22;10390;53.566;9.980;2023-07-13T13:08:29;31.90;1.00
20463;DHT22;10390;53.566;9.980;2023-07-13T13:10:54;31.90;1.00
20463;DHT22;10390;53.566;9.980;2023-07-13T13:13:20;31.90;1.00
20463;DHT22;10390;53.566;9.980;2023-07-13T13:15:46;31.90;1.00
20463;DHT22;10390;53.566;9.980;2023-07-13T13:18:19;31.90;1.00
20463;DHT22;10390;53.566;9.980;2023-07-13T13:20:45;31.90;1.00
20463;DHT22;10390;53.566;9.980;2023-07-13T13:23:13;31.90;1.00
20463;DHT22;10390;53.566;9.980;2023-07-13T13:25:42;31.90;1.00
20463;DHT22;10390;53.566;9.980;2023-07-13T13:28:13;31.90;1.00
20463;DHT22;10390;53.566;9.980;2023-07-13T13:30:40;31.90;1.00
20463;DHT22;10390;53.566;9.980;2023-07-13T13:33:10;31.90;1.00
20463;DHT22;10390;53.566;9.980;2023-07-13T13:35:37;31.80;1.00
20463;DHT22;10390;53.566;9.980;2023-07-13T13:38:12;31.80;1.00
20463;DHT22;10390;53.566;9.980;2023-07-13T13:40:40;31.90;1.00
20463;DHT22;10390;53.566;9.980;2023-07-13T13:45:43;31.80;1.00
20463;DHT22;10390;53.566;9.980;2023-07-13T13:48:29;31.80;1.00
20463;DHT22;10390;53.566;9.980;2023-07-13T13:50:56;31.80;1.00
20463;DHT22;10390;53.566;9.980;2023-07-13T13:53:22;31.80;1.00
20463;DHT22;10390;53.566;9.980;2023-07-13T13:55:51;31.80;1.00
20463;DHT22;10390;53.566;9.980;2023-07-13T13:58:18;31.80;1.00
20463;DHT22;10390;53.566;9.980;2023-07-13T14:00:44;31.80;1.00
20463;DHT22;10390;53.566;9.980;2023-07-13T14:03:16;31.80;1.00
20463;DHT22;10390;53.566;9.980;2023-07-13T14:05:42;31.80;1.00
20463;DHT22;10390;53.566;9.980;2023-07-13T14:08:14;31.80;1.00
20463;DHT22;10390;53.566;9.980;2023-07-13T14:10:40;31.80;1.00
20463;DHT22;10390;53.566;9.980;2023-07-13T14:13:16;31.80;1.00
20463;DHT22;10390;53.566;9.980;2023-07-13T14:15:44;31.80;1.00
20463;DHT22;10390;53.566;9.980;2023-07-13T14:18:10;31.80;1.00
20463;DHT22;10390;53.566;9.980;2023-07-13T14:20:35;31.80;1.00
20463;DHT22;10390;53.566;9.980;2023-07-13T14:23:01;31.80;1.00
20463;DHT22;10390;53.566;9.980;2023-07-13T14:25:27;31.80;1.00
20463;DHT22;10390;53.566;9.980;2023-07-13T14:27:56;31.80;1.00
20463;DHT22;10390;53.566;9.980;2023-07-13T14:30:25;31.80;1.00
20463;DHT22;10390;53.566;9.980;2023-07-13T14:32:51;31.80;1.00
20463;DHT22;10390;53.566;9.980;2023-07-13T14:35:21;31.80;1.00
20463;DHT22;10390;53.566;9.980;2023-07-13T14:37:49;31.80;1.00
20463;DHT22;10390;53.566;9.980;2023-07-13T14:40:17;31.80;1.00
20463;DHT22;10390;53.566;9.980;2023-07-13T14:42:43;31.70;1.00
20463;DHT22;10390;53.566;9.980;2023-07-13T14:45:16;31.80;1.00
20463;DHT22;10390;53.566;9.980;2023-07-13T14:47:43;31.70;1.00
20463;DHT22;10390;53.566;9.980;2023-07-13T14:50:31;31.80;1.00
20463;DHT22;10390;53.566;9.980;2023-07-13T14:52:57;31.70;1.00
20463;DHT22;10390;53.566;9.980;2023-07-13T14:55:23;31.70;1.00
20463;DHT22;10390;53.566;9.980;2023-07-13T14:57:52;31.70;1.00
20463;DHT22;10390;53.566;9.980;2023-07-13T15:00:20;31.70;1.00
20463;DHT22;10390;53.566;9.980;2023-07-13T15:02:51;31.70;1.00
20463;DHT22;10390;53.566;9.980;2023-07-13T15:05:21;31.70;1.00
20463;DHT22;10390;53.566;9.980;2023-07-13T15:07:48;31.70;1.00
20463;DHT22;10390;53.566;9.980;2023-07-13T15:12:40;31.70;1.00
20463;DHT22;10390;53.566;9.980;2023-07-13T15:15:06;31.70;1.00
20463;DHT22;10390;53.566;9.980;2023-07-13T15:17:38;31.70;1.00
20463;DHT22;10390;53.566;9.980;2023-07-13T15:20:32;31.70;1.00
20463;DHT22;10390;53.566;9.980;2023-07-13T15:22:58;31.70;1.00
20463;DHT22;10390;53.566;9.980;2023-07-13T15:25:26;31.70;1.00
20463;DHT22;10390;53.566;9.980;2023-07-13T15:27:54;31.70;1.00
20463;DHT22;10390;53.566;9.980;2023-07-13T15:30:21;31.70;1.00
20463;DHT22;10390;53.566;9.980;2023-07-13T15:32:47;31.70;1.00
20463;DHT22;10390;53.566;9.980;2023-07-13T15:35:18;31.70;1.00
20463;DHT22;10390;53.566;9.980;2023-07-13T15:37:45;31.70;1.00
20463;DHT22;10390;53.566;9.980;2023-07-13T15:40:12;31.60;1.00
20463;DHT22;10390;53.566;9.980;2023-07-13T15:42:42;31.70;1.00
20463;DHT22;10390;53.566;9.980;2023-07-13T15:47:41;31.70;1.00
20463;DHT22;10390;53.566;9.980;2023-07-13T15:50:12;31.60;1.00
20463;DHT22;10390;53.566;9.980;2023-07-13T15:52:39;31.70;1.00
20463;DHT22;10390;53.566;9.980;2023-07-13T15:55:05;31.70;1.00
20463;DHT22;10390;53.566;9.980;2023-07-13T15:57:30;31.70;1.00
20463;DHT22;10390;53.566;9.980;2023-07-13T15:59:56;31.60;1.00
20463;DHT22;10390;53.566;9.980;2023-07-13T16:02:22;31.60;1.00
20463;DHT22;10390;53.566;9.980;2023-07-13T16:04:47;31.70;1.00
20463;DHT22;10390;53.566;9.980;2023-07-13T16:07:15;31.60;1.00
20463;DHT22;10390;53.566;9.980;2023-07-13T16:09:44;31.60;1.00
20463;DHT22;10390;53.566;9.980;2023-07-13T16:12:11;31.60;1.00
20463;DHT22;10390;53.566;9.980;2023-07-13T16:14:38;31.60;1.00
20463;DHT22;10390;53.566;9.980;2023-07-13T16:17:05;31.60;1.00
20463;DHT22;10390;53.566;9.980;2023-07-13T16:19:31;31.60;1.00
20463;DHT22;10390;53.566;9.980;2023-07-13T16:21:58;31.60;1.00
20463;DHT22;10390;53.566;9.980;2023-07-13T16:24:25;31.60;1.00
20463;DHT22;10390;53.566;9.980;2023-07-13T16:26:52;31.60;1.00
20463;DHT22;10390;53.566;9.980;2023-07-13T16:29:24;31.60;1.00
20463;DHT22;10390;53.566;9.980;2023-07-13T16:32:05;31.60;1.00
20463;DHT22;10390;53.566;9.980;2023-07-13T16:34:33;31.60;1.00
20463;DHT22;10390;53.566;9.980;2023-07-13T16:37:01;31.60;1.00
20463;DHT22;10390;53.566;9.980;2023-07-13T16:39:28;31.60;1.00
20463;DHT22;10390;53.566;9.980;2023-07-13T16:41:57;31.60;1.00